• Join FlightAware (Why Join?)
  • Login
  • US Flag 
Trick or treat! (Boo!!) 
12:50AM EDT


 

Airport Tracker/Info


-or-


 

Live Flight TrackerFlight Track Log ✈ ELY4 ✈ 11-Apr-2013 ✈ KJFK - LLBG / TLV

Flight Track Log - Related Links

Times and Time Zones

All times are in EDT time to prevent confusion due to time zone crossing. See the ELY4 flight status page for this flight to view local times or setup timezone preferences in your user account.

Time Position Orientation Groundspeed Altitude Reporting Facility
EDT Latitude Longitude Course Direction KTS MPH feet Rate Location/Type
01:15PM 40.6580 -73.7580 31° Northeast 178 205 900  Level FlightAware
01:16PM 40.6670 -73.7470 43° Northeast 180 207 1,400 1,980 Climbing FlightAware
01:16PM 40.6700 -73.7300 77° East 186 214 1,900 1,200 Climbing FlightAware
01:16PM 40.6710 -73.7010 87° East 208 239 2,200 600 Climbing FlightAware
01:17PM 40.6720 -73.6600 88° East 240 276 2,500 960 Climbing FlightAware
01:17PM 40.6740 -73.6140 87° East 261 300 3,200 1,380 Climbing FlightAware
01:18PM 40.6760 -73.5740 86° East 272 313 3,800 1,620 Climbing FlightAware
01:18PM 40.6780 -73.5230 87° East 284 327 4,700 1,380 Climbing FlightAware
01:19PM 40.6810 -73.4760 85° East 303 349 5,100 1,200 Climbing FlightAware
01:19PM 40.6920 -73.4220 75° East 307 353 5,800 1,320 Climbing FlightAware
01:19PM 40.7060 -73.4050 43° Northeast 304 350 6,100 1,380 Climbing FlightAware
01:20PM 40.7250 -73.3930 26° Northeast 298 343 6,500 1,500 Climbing FlightAware
01:20PM 40.7560 -73.3840 12° North 289 333 7,100 1,500 Climbing FlightAware
01:21PM 40.7970 -73.3810 North 289 333 7,900 1,620 Climbing FlightAware
01:21PM 40.8330 -73.3770 North 291 335 8,600 1,620 Climbing FlightAware
01:22PM 40.8730 -73.3720 North 294 338 9,400 1,500 Climbing FlightAware
01:22PM 40.9060 -73.3630 12° North 303 349 10,000 900 Climbing FlightAware
01:23PM 40.9690 -73.3330 20° North 337 388 10,500 600 Climbing FlightAware
01:23PM 41.0320 -73.3030 20° North 367 422 10,900 660 Climbing FlightAware
01:24PM 41.0990 -73.2720 19° North 397 457 11,400 1,560 Climbing FlightAware
01:25PM 41.2070 -73.2200 20° North 415 478 13,500 1,980 Climbing FlightAware
01:26PM 41.2640 -73.1930 20° North 419 482 14,600 1,800 Climbing FlightAware
01:26PM 41.3370 -73.1590 19° North 430 495 15,800 840 Climbing FlightAware
01:27PM 41.4150 -73.1210 20° North 430 495 15,800 1,920 Level FlightAware
01:27PM 41.4340 -73.0220 76° East 470 541 17,900 3,360 Climbing FlightAware
01:28PM 41.4780 -72.9200 60° Northeast 478 550 19,200 900 Climbing FlightAware
01:29PM 41.5210 -72.8200 60° Northeast 478 550 19,200  Level FlightAware
01:29PM 41.5590 -72.7330 60° Northeast 478 550 19,200 2,460 Level FlightAware
01:30PM 41.6220 -72.5930 59° Northeast 485 558 22,700 3,360 Climbing FlightAware
01:31PM 41.6360 -72.5580 62° Northeast 24,500 2,460 Climbing FlightAware
01:31PM 41.6940 -72.4290 59° Northeast 477 549 25,400 1,500 Climbing FlightAware
01:32PM 41.7620 -72.2780 59° Northeast 477 549 27,000 1,380 Climbing FlightAware
01:33PM 41.7990 -72.1730 65° Northeast 484 557 27,700 1,020 Climbing FlightAware
01:34PM 41.8270 -72.0800 68° East 485 558 28,400 960 Climbing FlightAware
01:34PM 41.8670 -71.9420 69° East 494 568 29,100 900 Climbing FlightAware
01:36PM 41.9400 -71.6850 69° East 503 579 30,400 840 Climbing FlightAware
01:36PM 41.9720 -71.5730 69° East 507 583 30,900 720 Climbing FlightAware
01:37PM 42.0110 -71.4360 69° East 512 589 31,500 720 Climbing FlightAware
01:38PM 42.0440 -71.3160 70° East 518 596 32,000 600 Climbing FlightAware
01:39PM 42.0820 -71.1790 69° East 520 598 32,400 600 Climbing FlightAware
01:39PM 42.1160 -71.0580 69° East 525 604 32,900 420 Climbing FlightAware
01:40PM 42.1490 -70.9400 69° East 529 609 33,000 60 Climbing FlightAware
01:41PM 42.1860 -70.8050 70° East 530 610 33,000  Level FlightAware
01:41PM 42.2190 -70.6720 71° East 533 613 33,000  Level FlightAware
01:42PM 42.2450 -70.5500 74° East 536 617 33,000  Level FlightAware
01:43PM 42.2740 -70.4010 75° East 539 620 33,000  Level FlightAware
01:43PM 42.2990 -70.2750 75° East 543 625 33,000  Level FlightAware
01:44PM 42.3200 -70.1620 76° East 546 628 33,000  Level FlightAware
01:45PM 42.3460 -70.0220 76° East 550 633 33,000  Level FlightAware
01:46PM 42.3880 -69.7980 76° East 551 634 33,000  Level FlightAware
01:47PM 42.4210 -69.6160 76° East 552 635 33,000  Level FlightAware
01:47PM 42.4500 -69.4590 76° East 552 635 33,000  Level FlightAware
01:48PM 42.4730 -69.3340 76° East 552 635 33,000  Level FlightAware
01:49PM 42.5070 -69.1480 76° East 554 638 33,000  Level FlightAware
01:50PM 42.5330 -68.9990 77° East 554 638 33,000  Level FlightAware
01:50PM 42.5550 -68.8760 76° East 554 638 33,000  Level FlightAware
01:51PM 42.5790 -68.7430 76° East 554 638 33,000  Level FlightAware
01:52PM 42.6020 -68.6080 77° East 554 638 33,000  Level FlightAware
01:53PM 42.6320 -68.4370 77° East 554 638 33,000  Level FlightAware
01:53PM 42.6610 -68.2700 77° East 553 636 33,000  Level FlightAware
01:54PM 42.6900 -68.1000 77° East 554 638 33,000  Level FlightAware
01:55PM 42.7090 -67.9860 77° East 554 638 33,000  Level FlightAware
01:56PM 42.7290 -67.8700 77° East 554 638 33,000  Level FlightAware
01:56PM 42.7490 -67.7540 77° East 554 638 33,000  Level FlightAware
01:57PM 42.7730 -67.6100 77° East 554 638 33,000  Level FlightAware
01:58PM 42.7930 -67.4940 77° East 554 638 33,000  Level FlightAware
01:58PM 42.8120 -67.3780 77° East 554 638 33,000  Level FlightAware
01:59PM 42.8320 -67.2630 77° East 554 638 33,000  Level FlightAware
02:00PM 42.8510 -67.1470 77° East 554 638 33,000  Level FlightAware
02:01PM 42.8760 -67.0020 77° East 554 638 33,000  Level FlightAware
02:01PM 42.9230 -66.6710 79° East 33,000  Level FlightAware
02:02PM 42.9490 -66.5060 78° East 567 652 33,000  Level FlightAware
02:02PM 42.9680 -66.3800 78° East 569 655 33,000  Level FlightAware
02:03PM 42.9950 -66.2060 78° East 570 656 33,000  Level FlightAware
02:04PM 43.0160 -66.0650 78° East 570 656 33,000  Level FlightAware
02:05PM 43.0400 -65.9060 78° East 571 657 33,000  Level FlightAware
02:05PM 43.0610 -65.7650 78° East 572 658 33,000  Level FlightAware
02:06PM 43.0840 -65.6050 79° East 572 658 33,000  Level FlightAware
02:07PM 43.1050 -65.4640 78° East 572 658 33,000  Level FlightAware
02:09PM 43.1620 -65.0670 79° East 572 658 33,000  Level FlightAware
02:10PM 43.1970 -64.8170 79° East 572 658 33,000  Level FlightAware
02:11PM 43.2300 -64.5710 79° East 570 656 33,000  Level FlightAware
02:12PM 43.2650 -64.3120 79° East 570 656 33,000  Level FlightAware
02:13PM 43.2850 -64.1600 80° East 570 656 33,000  Level FlightAware
02:14PM 43.3000 -64.0390 80° East 570 656 33,000  Level FlightAware
02:14PM 43.3160 -63.9180 80° East 570 656 33,000  Level FlightAware
02:15PM 43.3310 -63.7960 80° East 570 656 33,000  Level FlightAware
02:16PM 43.3470 -63.6750 80° East 570 656 33,000  Level FlightAware
02:17PM 43.3660 -63.5230 80° East 570 656 33,000  Level FlightAware
02:17PM 43.3820 -63.4020 80° East 570 656 33,000  Level FlightAware
02:18PM 43.3970 -63.2800 80° East 570 656 33,000  Level FlightAware
02:19PM 43.4130 -63.1590 80° East 570 656 33,000  Level FlightAware
02:19PM 43.4280 -63.0370 80° East 570 656 33,000  Level FlightAware
02:20PM 43.4480 -62.8850 80° East 570 656 33,000  Level FlightAware
02:21PM 43.4630 -62.7630 80° East 570 656 33,000  Level FlightAware
02:21PM 43.4790 -62.6420 80° East 570 656 33,000  Level FlightAware
02:22PM 43.5167 -62.1833 80° East 580 667 33,000  Level Moncton Center
02:23PM 43.5500 -61.9833 77° East 580 667 33,000  Level Moncton Center
02:24PM 43.5500 -61.7667 90° East 580 667 33,000  Level Moncton Center
02:25PM 43.5833 -61.5333 79° East 580 667 33,000  Level Moncton Center
02:26PM 43.6167 -61.3333 77° East 580 667 33,000  Level Moncton Center
02:27PM 43.6333 -61.1000 84° East 580 667 33,000  Level Moncton Center
02:28PM 43.6500 -60.8833 84° East 580 667 33,000  Level Moncton Center
02:29PM 43.6667 -60.6500 84° East 580 667 33,000  Level Moncton Center
02:30PM 43.7000 -60.4167 79° East 580 667 33,000  Level Moncton Center
02:31PM 43.7167 -60.2167 83° East 580 667 33,000  Level Moncton Center
02:32PM 43.7500 -59.9833 79° East 590 679 33,000  Level Moncton Center
02:33PM 43.7500 -59.7667 90° East 580 667 33,000  Level Moncton Center
02:34PM 43.7833 -59.5333 79° East 580 667 33,000  Level Moncton Center
02:35PM 43.8000 -59.3167 84° East 580 667 33,000  Level Moncton Center
02:36PM 43.8167 -59.0833 84° East 580 667 33,000  Level Moncton Center
02:37PM 43.8500 -58.8833 77° East 590 679 33,000  Level Moncton Center
02:38PM 43.8500 -58.6500 90° East 590 679 33,000  Level Moncton Center
02:39PM 43.8667 -58.4167 84° East 590 679 33,000  Level Moncton Center
02:40PM 43.9000 -58.1833 79° East 590 679 33,000  Level Moncton Center
02:41PM 43.9167 -57.9667 84° East 590 679 33,000  Level Moncton Center
02:42PM 43.9333 -57.7500 84° East 590 679 33,000  Level Moncton Center
02:43PM 43.9333 -57.5167 90° East 590 679 33,000  Level Moncton Center
02:44PM 43.9500 -57.2833 84° East 590 679 33,000  Level Moncton Center
02:45PM 43.9667 -57.0500 84° East 590 679 33,000  Level Moncton Center
02:46PM 44.0000 -56.8333 78° East 590 679 33,000  Level Moncton Center
02:47PM 44.0167 -56.6000 84° East 590 679 33,000  Level Moncton Center
02:48PM 44.0333 -56.4000 83° East 590 679 33,000  Level Moncton Center
02:50PM 44.0833 -55.9167 82° East 590 679 33,000 300 Level Moncton Center
02:54PM 44.1093 -55.6019 83° East  Level FlightAware Approximate
02:54PM 44.1333 -55.0167 83° East 540 621 35,000  Level Moncton Center
02:55PM 44.1500 -54.8500 82° East 600 690 35,000  Level Gander Center
02:56PM 44.1500 -54.6167 90° East 590 679 35,000  Level Gander Center
02:57PM 44.1500 -54.4000 90° East 590 679 35,000  Level Gander Center
02:57PM 44.1667 -54.3167 74° East 590 679 35,000  Level Moncton Center
02:58PM 44.1500 -54.0833 96° East 600 690 35,000  Level Moncton Center
02:59PM 44.1500 -53.8500 90° East 590 679 35,000  Level Moncton Center
03:00PM 44.1667 -53.7000 81° East 610 702 35,000  Level Gander Center
03:01PM 44.1667 -53.4500 90° East 610 702 35,000  Level Gander Center
03:02PM 44.1500 -53.2167 96° East 610 702 35,000  Level Gander Center
03:02PM 44.1500 -53.1500 90° East 610 702 35,000  Level Moncton Center
03:03PM 44.1500 -52.9833 90° East 600 690 35,000  Level Gander Center
03:04PM 44.1500 -52.7500 90° East 610 702 35,000  Level Gander Center
03:05PM 44.1500 -52.5000 90° East 610 702 35,000  Level Gander Center
03:06PM 44.1500 -52.2833 90° East 610 702 35,000  Level Gander Center
03:07PM 44.1333 -52.0333 95° East 610 702 35,000  Level Gander Center
03:07PM 44.1167 -51.9833 115° Southeast 610 702 35,000  Level Moncton Center
03:08PM 44.1167 -51.7500 90° East 600 690 35,000  Level Moncton Center
03:09PM 44.1667 -52.4333 95° East 576 663 35,000  Level New York Oceanic (ODAPS)
03:09PM 44.1000 -51.5167 95° East 600 690 35,000  Level Moncton Center
03:10PM 44.0833 -51.3500 98° East 600 690 35,000  Level Gander Center
03:11PM 44.1000 -51.3667 95° East 598 688 35,000  Level New York Oceanic (ODAPS)
03:11PM 44.0833 -51.2000 95° East 601 692 35,000  Level New York Oceanic (ODAPS)
03:12PM 44.0500 -50.9167 95° East 600 690 35,000  Level Gander Center
03:16PM 44.0308 -50.5493 94° East  Level FlightAware Approximate
03:16PM 44.0000 -50.0000 94° East 593 682 35,000  Level New York Oceanic (ODAPS)
03:23PM 43.9022 -48.4247 95° East 593 682 35,000  Level FlightAware Transoceanic
03:24PM 43.8864 -48.2001 96° East 593 682 35,000  Level FlightAware Transoceanic
03:25PM 43.8703 -47.9756 96° East 593 682 35,000  Level FlightAware Transoceanic
03:26PM 43.8536 -47.7513 96° East 593 682 35,000  Level FlightAware Transoceanic
03:27PM 43.8366 -47.5270 96° East 593 682 35,000  Level FlightAware Transoceanic
03:28PM 43.8191 -47.3029 96° East 593 682 35,000  Level FlightAware Transoceanic
03:29PM 43.8012 -47.0790 96° East 593 682 35,000  Level FlightAware Transoceanic
03:30PM 43.7828 -46.8551 97° East 593 682 35,000  Level FlightAware Transoceanic
03:30PM 43.7667 -46.7167 97° East 590 679 35,000  Level New York Oceanic (ODAPS)
03:31PM 43.7640 -46.6314 97° East 593 682 35,000  Level FlightAware Transoceanic
03:32PM 43.7447 -46.4079 97° East 593 682 35,000  Level FlightAware Transoceanic
03:33PM 43.7251 -46.1845 97° East 593 682 35,000  Level FlightAware Transoceanic
03:34PM 43.7049 -45.9612 97° East 593 682 35,000  Level FlightAware Transoceanic
03:35PM 43.6844 -45.7381 97° East 593 682 35,000  Level FlightAware Transoceanic
03:36PM 43.6634 -45.5152 97° East 593 682 35,000  Level FlightAware Transoceanic
03:37PM 43.6450 -45.3604 98° East 590 679 35,000  Level FlightAware Transoceanic
03:38PM 43.6231 -45.1349 98° East 590 679 35,000  Level FlightAware Transoceanic
03:39PM 43.6008 -44.9095 98° East 590 679 35,000  Level FlightAware Transoceanic
03:40PM 43.5781 -44.6844 98° East 590 679 35,000  Level FlightAware Transoceanic
03:41PM 43.5549 -44.4594 98° East 590 679 35,000  Level FlightAware Transoceanic
03:42PM 43.5313 -44.2346 98° East 590 679 35,000  Level FlightAware Transoceanic
03:43PM 43.5073 -44.0099 98° East 590 679 35,000  Level FlightAware Transoceanic
03:44PM 43.4828 -43.7854 99° East 590 679 35,000  Level FlightAware Transoceanic
03:45PM 43.4579 -43.5612 99° East 590 679 35,000  Level FlightAware Transoceanic
03:46PM 43.4325 -43.3371 99° East 590 679 35,000  Level FlightAware Transoceanic
03:47PM 43.4067 -43.1132 99° East 590 679 35,000  Level FlightAware Transoceanic
03:48PM 43.3805 -42.8895 99° East 590 679 35,000  Level FlightAware Transoceanic
03:49PM 43.3538 -42.6660 99° East 590 679 35,000  Level FlightAware Transoceanic
03:50PM 43.3267 -42.4426 100° East 590 679 35,000  Level FlightAware Transoceanic
03:50PM 43.3000 -42.2500 100° East 571 657 35,000  Level New York Oceanic (ODAPS)
03:51PM 43.2991 -42.2195 100° East 590 679 35,000  Level FlightAware Transoceanic
03:52PM 43.2711 -41.9966 100° East 590 679 35,000  Level FlightAware Transoceanic
03:53PM 43.2427 -41.7739 100° East 590 679 35,000  Level FlightAware Transoceanic
03:54PM 43.2139 -41.5514 100° East 590 679 35,000  Level FlightAware Transoceanic
03:55PM 43.1846 -41.3291 100° East 590 679 35,000  Level FlightAware Transoceanic
03:56PM 43.1549 -41.1070 100° East 590 679 35,000  Level FlightAware Transoceanic
03:57PM 43.1253 -40.8973 101° East 571 657 35,000  Level FlightAware Transoceanic
03:58PM 43.0946 -40.6727 101° East 571 657 35,000  Level FlightAware Transoceanic
03:59PM 43.0635 -40.4482 101° East 571 657 35,000  Level FlightAware Transoceanic
04:00PM 43.0320 -40.2240 101° East 571 657 35,000  Level FlightAware Transoceanic
04:01PM 43.0000 -40.0000 87° East 571 657 35,000  Level FlightAware Transoceanic
04:02PM 43.0087 -39.7964 87° East 571 657 35,000  Level FlightAware Transoceanic
04:03PM 43.0171 -39.5927 87° East 571 657 35,000  Level FlightAware Transoceanic
04:04PM 43.0250 -39.3890 87° East 571 657 35,000  Level FlightAware Transoceanic
04:05PM 43.0326 -39.1852 87° East 571 657 35,000  Level FlightAware Transoceanic
04:06PM 43.0399 -38.9813 87° East 571 657 35,000  Level FlightAware Transoceanic
04:07PM 43.0468 -38.7774 87° East 571 657 35,000  Level FlightAware Transoceanic
04:08PM 43.0533 -38.5735 88° East 571 657 35,000  Level FlightAware Transoceanic
04:09PM 43.0595 -38.3695 88° East 571 657 35,000  Level FlightAware Transoceanic
04:10PM 43.0653 -38.1655 88° East 571 657 35,000  Level FlightAware Transoceanic
04:11PM 43.0708 -37.9615 88° East 571 657 35,000  Level FlightAware Transoceanic
04:12PM 43.0759 -37.7574 88° East 571 657 35,000  Level FlightAware Transoceanic
04:13PM 43.0806 -37.5533 88° East 571 657 35,000  Level FlightAware Transoceanic
04:14PM 43.0849 -37.3491 88° East 571 657 35,000  Level FlightAware Transoceanic
04:15PM 43.0889 -37.1449 89° East 571 657 35,000  Level FlightAware Transoceanic
04:16PM 43.0926 -36.9407 89° East 571 657 35,000  Level FlightAware Transoceanic
04:17PM 43.0958 -36.7365 89° East 571 657 35,000  Level FlightAware Transoceanic
04:18PM 43.0988 -36.5323 89° East 571 657 35,000  Level FlightAware Transoceanic
04:19PM 43.1013 -36.3280 89° East 571 657 35,000  Level FlightAware Transoceanic
04:20PM 43.1035 -36.1237 89° East 571 657 35,000  Level FlightAware Transoceanic
04:21PM 43.1053 -35.9194 89° East 571 657 35,000  Level FlightAware Transoceanic
04:22PM 43.1067 -35.7151 90° East 571 657 35,000  Level FlightAware Transoceanic
04:23PM 43.1078 -35.5108 90° East 571 657 35,000  Level FlightAware Transoceanic
04:24PM 43.1086 -35.3065 90° East 571 657 35,000  Level FlightAware Transoceanic
04:25PM 43.1089 -35.1022 90° East 571 657 35,000  Level FlightAware Transoceanic
04:26PM 43.1089 -34.8978 90° East 571 657 35,000  Level FlightAware Transoceanic
04:27PM 43.1086 -34.6935 90° East 571 657 35,000  Level FlightAware Transoceanic
04:28PM 43.1078 -34.4892 90° East 571 657 35,000  Level FlightAware Transoceanic
04:29PM 43.1067 -34.2849 90° East 571 657 35,000  Level FlightAware Transoceanic
04:30PM 43.1053 -34.0806 91° East 571 657 35,000  Level FlightAware Transoceanic
04:31PM 43.1035 -33.8763 91° East 571 657 35,000  Level FlightAware Transoceanic
04:32PM 43.1013 -33.6720 91° East 571 657 35,000  Level FlightAware Transoceanic
04:33PM 43.0988 -33.4677 91° East 571 657 35,000  Level FlightAware Transoceanic
04:34PM 43.0958 -33.2635 91° East 571 657 35,000  Level FlightAware Transoceanic
04:35PM 43.0926 -33.0593 91° East 571 657 35,000  Level FlightAware Transoceanic
04:36PM 43.0889 -32.8551 91° East 571 657 35,000  Level FlightAware Transoceanic
04:37PM 43.0849 -32.6509 92° East 571 657 35,000  Level FlightAware Transoceanic
04:38PM 43.0806 -32.4467 92° East 571 657 35,000  Level FlightAware Transoceanic
04:39PM 43.0759 -32.2426 92° East 571 657 35,000  Level FlightAware Transoceanic
04:40PM 43.0708 -32.0385 92° East 571 657 35,000  Level FlightAware Transoceanic
04:41PM 43.0653 -31.8345 92° East 571 657 35,000  Level FlightAware Transoceanic
04:42PM 43.0595 -31.6305 92° East 571 657 35,000  Level FlightAware Transoceanic
04:43PM 43.0533 -31.4265 92° East 571 657 35,000  Level FlightAware Transoceanic
04:44PM 43.0468 -31.2226 93° East 571 657 35,000  Level FlightAware Transoceanic
04:45PM 43.0399 -31.0187 93° East 571 657 35,000  Level FlightAware Transoceanic
04:46PM 43.0326 -30.8148 93° East 571 657 35,000  Level FlightAware Transoceanic
04:47PM 43.0250 -30.6110 93° East 571 657 35,000  Level FlightAware Transoceanic
04:48PM 43.0171 -30.4073 93° East 571 657 35,000  Level FlightAware Transoceanic
04:49PM 43.0087 -30.2036 93° East 571 657 35,000  Level FlightAware Transoceanic
04:50PM 43.0000 -29.9991 93° East  Level FlightAware Approximate
04:51PM 43.0001 -29.9981 87° East  Level FlightAware Approximate
04:52PM 43.0088 -29.7936 87° East  Level FlightAware Approximate
04:53PM 43.0172 -29.5889 87° East  Level FlightAware Approximate
04:54PM 43.0252 -29.3842 87° East  Level FlightAware Approximate
04:55PM 43.0329 -29.1795 87° East  Level FlightAware Approximate
04:56PM 43.0401 -28.9747 87° East  Level FlightAware Approximate
04:57PM 43.0471 -28.7699 87° East  Level FlightAware Approximate
04:58PM 43.0536 -28.5650 87° East  Level FlightAware Approximate
04:59PM 43.0598 -28.3601 88° East  Level FlightAware Approximate
05:00PM 43.0656 -28.1551 88° East  Level FlightAware Approximate
05:01PM 43.0711 -27.9501 88° East  Level FlightAware Approximate
05:02PM 43.0762 -27.7451 88° East  Level FlightAware Approximate
05:03PM 43.0809 -27.5401 88° East  Level FlightAware Approximate
05:04PM 43.0852 -27.3350 88° East  Level FlightAware Approximate
05:05PM 43.0892 -27.1299 88° East  Level FlightAware Approximate
05:06PM 43.0928 -26.9247 89° East  Level FlightAware Approximate
05:07PM 43.0961 -26.7195 89° East  Level FlightAware Approximate
05:08PM 43.0990 -26.5143 89° East  Level FlightAware Approximate
05:09PM 43.1015 -26.3091 89° East  Level FlightAware Approximate
05:10PM 43.1037 -26.1039 89° East  Level FlightAware Approximate
05:11PM 43.1055 -25.8987 89° East  Level FlightAware Approximate
05:12PM 43.1069 -25.6934 89° East  Level FlightAware Approximate
05:13PM 43.1079 -25.4882 90° East  Level FlightAware Approximate
05:14PM 43.1086 -25.2829 90° East  Level FlightAware Approximate
05:15PM 43.1090 -25.0776 90° East  Level FlightAware Approximate
05:16PM 43.1089 -24.8724 90° East  Level FlightAware Approximate
05:17PM 43.1085 -24.6671 90° East  Level FlightAware Approximate
05:18PM 43.1077 -24.4618 90° East  Level FlightAware Approximate
05:19PM 43.1066 -24.2566 90° East  Level FlightAware Approximate
05:20PM 43.1051 -24.0513 91° East  Level FlightAware Approximate
05:21PM 43.1032 -23.8461 91° East  Level FlightAware Approximate
05:22PM 43.1009 -23.6409 91° East  Level FlightAware Approximate
05:23PM 43.0983 -23.4357 91° East  Level FlightAware Approximate
05:24PM 43.0953 -23.2305 91° East  Level FlightAware Approximate
05:25PM 43.0920 -23.0253 91° East  Level FlightAware Approximate
05:26PM 43.0883 -22.8202 91° East  Level FlightAware Approximate
05:27PM 43.0842 -22.6151 91° East  Level FlightAware Approximate
05:28PM 43.0798 -22.4100 92° East  Level FlightAware Approximate
05:29PM 43.0750 -22.2049 92° East  Level FlightAware Approximate
05:30PM 43.0698 -21.9999 92° East  Level FlightAware Approximate
05:31PM 43.0642 -21.7949 92° East  Level FlightAware Approximate
05:32PM 43.0583 -21.5900 92° East  Level FlightAware Approximate
05:33PM 43.0521 -21.3851 92° East  Level FlightAware Approximate
05:34PM 43.0454 -21.1802 92° East  Level FlightAware Approximate
05:35PM 43.0384 -20.9754 93° East  Level FlightAware Approximate
05:36PM 43.0310 -20.7706 93° East  Level FlightAware Approximate
05:37PM 43.0233 -20.5659 93° East  Level FlightAware Approximate
05:38PM 43.0152 -20.3612 93° East  Level FlightAware Approximate
05:39PM 43.0067 -20.1566 93° East  Level FlightAware Approximate
05:40PM 42.9973 -19.9521 94° East  Level FlightAware Approximate
05:41PM 42.9854 -19.7479 94° East  Level FlightAware Approximate
05:42PM 42.9731 -19.5437 95° East  Level FlightAware Approximate
05:43PM 42.9605 -19.3397 95° East  Level FlightAware Approximate
05:44PM 42.9475 -19.1357 95° East  Level FlightAware Approximate
05:45PM 42.9342 -18.9318 95° East  Level FlightAware Approximate
05:46PM 42.9205 -18.7280 95° East  Level FlightAware Approximate
05:47PM 42.9064 -18.5243 95° East  Level FlightAware Approximate
05:48PM 42.8920 -18.3207 95° East  Level FlightAware Approximate
05:49PM 42.8772 -18.1171 96° East  Level FlightAware Approximate
05:50PM 42.8621 -17.9137 96° East  Level FlightAware Approximate
05:51PM 42.8466 -17.7104 96° East  Level FlightAware Approximate
05:52PM 42.8307 -17.5072 96° East  Level FlightAware Approximate
05:53PM 42.8145 -17.3041 96° East  Level FlightAware Approximate
05:54PM 42.7979 -17.1011 96° East  Level FlightAware Approximate
05:55PM 42.7810 -16.8982 96° East  Level FlightAware Approximate
05:56PM 42.7637 -16.6954 97° East  Level FlightAware Approximate
05:57PM 42.7460 -16.4927 97° East  Level FlightAware Approximate
05:58PM 42.7280 -16.2902 97° East  Level FlightAware Approximate
05:59PM 42.7096 -16.0878 97° East  Level FlightAware Approximate
06:00PM 42.6910 -15.8854 97° East  Level FlightAware Approximate
06:01PM 42.6720 -15.6832 97° East  Level FlightAware Approximate
06:02PM 42.6527 -15.4811 97° East  Level FlightAware Approximate
06:03PM 42.6330 -15.2792 97° East  Level FlightAware Approximate
06:04PM 42.6130 -15.0773 98° East  Level FlightAware Approximate
06:05PM 42.5927 -14.8756 98° East  Level FlightAware Approximate
06:06PM 42.5719 -14.6741 98° East  Level FlightAware Approximate
06:07PM 42.5509 -14.4726 98° East  Level FlightAware Approximate
06:08PM 42.5295 -14.2713 98° East  Level FlightAware Approximate
06:09PM 42.5077 -14.0702 98° East  Level FlightAware Approximate
06:10PM 42.4882 -13.8687 97° East  Level FlightAware Approximate
06:11PM 42.4699 -13.6670 97° East  Level FlightAware Approximate
06:12PM 42.4512 -13.4655 97° East  Level FlightAware Approximate
06:13PM 42.4321 -13.2640 97° East  Level FlightAware Approximate
06:14PM 42.4127 -13.0627 97° East  Level FlightAware Approximate
06:15PM 42.3938 -12.8614 97° East  Level FlightAware Approximate
06:16PM 42.3761 -12.6600 97° East  Level FlightAware Approximate
06:17PM 42.3580 -12.4586 97° East  Level FlightAware Approximate
06:18PM 42.3396 -12.2574 97° East  Level FlightAware Approximate
06:19PM 42.3208 -12.0563 97° East  Level FlightAware Approximate
06:20PM 42.3017 -11.8553 97° East  Level FlightAware Approximate
06:21PM 42.2822 -11.6544 97° East  Level FlightAware Approximate
06:22PM 42.2624 -11.4537 98° East  Level FlightAware Approximate
06:23PM 42.2422 -11.2531 98° East  Level FlightAware Approximate
06:24PM 42.2217 -11.0526 98° East  Level FlightAware Approximate
06:25PM 42.2008 -10.8522 98° East  Level FlightAware Approximate
06:26PM 42.1796 -10.6520 98° East  Level FlightAware Approximate
06:27PM 42.1580 -10.4519 98° East  Level FlightAware Approximate
06:28PM 42.1361 -10.2520 98° East  Level FlightAware Approximate
06:29PM 42.1139 -10.0522 98° East  Level FlightAware Approximate
06:29PM 41.9140 -9.9680 99° East 557 641 37,000  Level FlightAware
06:30PM 42.0913 -9.8525 99° East  Level FlightAware Approximate
06:30PM 41.9050 -9.8570 96° East 557 641 37,000  Level FlightAware
06:31PM 41.8960 -9.7400 96° East 557 641 37,000  Level FlightAware
06:31PM 41.8710 -9.5490 100° East 556 640 37,000  Level FlightAware
06:32PM 41.8570 -9.4120 98° East 555 639 37,000  Level FlightAware
06:33PM 41.8390 -9.2480 98° East 555 639 37,000  Level FlightAware
06:34PM 41.8250 -9.1110 98° East 554 638 37,000  Level FlightAware
06:34PM 41.8080 -8.9590 98° East 552 635 37,000  Level FlightAware
06:35PM 41.7930 -8.8240 98° East 550 633 37,000  Level FlightAware
06:36PM 41.7770 -8.6740 98° East 549 632 37,000  Level FlightAware
06:36PM 41.7620 -8.5400 98° East 548 631 37,000  Level FlightAware
06:37PM 41.7450 -8.3890 99° East 546 628 37,000  Level FlightAware
06:38PM 41.7290 -8.2570 99° East 545 627 37,000  Level FlightAware
06:39PM 41.7140 -8.1240 99° East 542 624 37,000  Level FlightAware
06:39PM 41.6960 -7.9750 99° East 543 625 37,000  Level FlightAware
06:40PM 41.6800 -7.8410 99° East 542 624 37,000  Level FlightAware
06:41PM 41.6630 -7.6930 99° East 547 629 37,000  Level FlightAware
06:41PM 41.6460 -7.5590 100° East 548 631 37,000  Level FlightAware
06:42PM 41.6280 -7.4070 99° East 551 634 37,000  Level FlightAware
06:43PM 41.6120 -7.2760 99° East 552 635 37,000  Level FlightAware
06:43PM 41.5950 -7.1400 99° East 553 636 37,000  Level FlightAware
06:44PM 41.5760 -6.9910 100° East 553 636 37,000  Level FlightAware
06:45PM 41.5580 -6.8550 100° East 551 634 37,000  Level FlightAware
06:46PM 41.5390 -6.7050 100° East 553 636 37,000  Level FlightAware
06:46PM 41.5220 -6.5720 100° East 553 636 37,000  Level FlightAware
06:47PM 41.5220 -6.4330 90° East 557 641 37,000  Level FlightAware
06:48PM 41.5480 -6.2830 77° East 559 643 37,000  Level FlightAware
06:48PM 41.5780 -6.1540 73° East 557 641 37,000  Level FlightAware
06:49PM 41.6120 -6.0080 73° East 558 642 37,000  Level FlightAware
06:50PM 41.6420 -5.8750 73° East 560 644 37,000  Level FlightAware
06:50PM 41.6720 -5.7420 73° East 559 643 37,000  Level FlightAware
06:51PM 41.7050 -5.5930 73° East 560 644 37,000  Level FlightAware
06:52PM 41.7350 -5.4610 73° East 562 647 37,000  Level FlightAware
06:53PM 41.7650 -5.3270 73° East 563 648 37,000  Level FlightAware
06:53PM 41.7980 -5.1770 74° East 563 648 37,000  Level FlightAware
06:54PM 41.8270 -5.0440 74° East 563 648 37,000  Level FlightAware
06:55PM 41.8600 -4.8930 74° East 562 647 37,000  Level FlightAware
06:55PM 41.8890 -4.7610 74° East 566 651 37,000  Level FlightAware
06:56PM 41.9170 -4.6300 74° East 565 650 37,000  Level FlightAware
06:57PM 41.9500 -4.4780 74° East 565 650 37,000  Level FlightAware
06:57PM 41.9790 -4.3420 74° East 565 650 37,000  Level FlightAware
06:58PM 42.0110 -4.1890 74° East 564 649 37,000  Level FlightAware
06:59PM 42.0460 -4.0580 70° East 562 647 37,000  Level FlightAware
07:00PM 42.0950 -3.9160 65° Northeast 563 648 37,000  Level FlightAware
07:00PM 42.1400 -3.7890 64° Northeast 564 649 37,000  Level FlightAware
07:01PM 42.1830 -3.6660 65° Northeast 562 647 37,000  Level FlightAware
07:02PM 42.2330 -3.5220 65° Northeast 564 649 37,000  Level FlightAware
07:02PM 42.2780 -3.3940 65° Northeast 563 648 37,000  Level FlightAware
07:03PM 42.3210 -3.2680 65° Northeast 563 648 37,000  Level FlightAware
07:04PM 42.3700 -3.1250 65° Northeast 561 646 37,000  Level FlightAware
07:04PM 42.4130 -3.0000 65° Northeast 560 644 37,000  Level FlightAware
07:05PM 42.4390 -2.8500 77° East 556 640 37,000  Level FlightAware
07:06PM 42.4200 -2.7140 101° East 541 623 37,000  Level FlightAware
07:07PM 42.3930 -2.5820 105° East 544 626 37,000  Level FlightAware
07:07PM 42.3620 -2.4380 106° East 544 626 37,000  Level FlightAware
07:08PM 42.3340 -2.3070 106° East 546 628 37,000  Level FlightAware
07:09PM 42.3060 -2.1750 106° East 546 628 37,000  Level FlightAware
07:09PM 42.2760 -2.0290 105° East 546 628 37,000  Level FlightAware
07:10PM 42.2470 -1.8950 106° East 545 627 37,000  Level FlightAware
07:11PM 42.2150 -1.7440 106° East 546 628 37,000  Level FlightAware
07:11PM 42.1860 -1.6130 107° East 545 627 37,000  Level FlightAware
07:12PM 42.1560 -1.4720 106° East 548 631 37,000  Level FlightAware
07:13PM 42.1270 -1.3390 106° East 548 631 37,000  Level FlightAware
07:14PM 42.0980 -1.2090 107° East 547 629 37,000  Level FlightAware
07:14PM 42.0650 -1.0620 107° East 542 624 37,000  Level FlightAware
07:15PM 42.0360 -0.9310 107° East 540 621 37,000  Level FlightAware
07:16PM 42.0040 -0.7900 107° East 541 623 37,000  Level FlightAware
07:16PM 41.9760 -0.6630 106° East 540 621 37,000  Level FlightAware
07:17PM 41.9460 -0.5330 107° East 541 623 37,000  Level FlightAware
07:18PM 41.9120 -0.3850 107° East 541 623 37,000  Level FlightAware
07:18PM 41.8830 -0.2590 107° East 542 624 37,000  Level FlightAware
07:19PM 41.8500 -0.1160 107° East 543 625 37,000  Level FlightAware
07:20PM 41.8200 0.0130 107° East 544 626 37,000  Level FlightAware
07:21PM 41.7900 0.1400 108° East 546 628 37,000  Level FlightAware
07:21PM 41.7550 0.2880 108° East 544 626 37,000  Level FlightAware
07:22PM 41.7250 0.4160 107° East 544 626 37,000  Level FlightAware
07:23PM 41.6910 0.5580 108° East 542 624 37,000  Level FlightAware
07:23PM 41.6600 0.6860 108° East 542 624 37,000  Level FlightAware
07:24PM 41.6290 0.8100 108° East 541 623 37,000  Level FlightAware
07:25PM 41.5900 0.9530 110° East 543 625 37,000  Level FlightAware
07:25PM 41.5560 1.0830 109° East 544 626 37,000  Level FlightAware
07:26PM 41.5210 1.2220 109° East 549 632 37,000  Level FlightAware
07:27PM 41.4920 1.3510 107° East 549 632 37,000  Level FlightAware
07:28PM 41.4630 1.4800 107° East 551 634 37,000  Level FlightAware
07:28PM 41.4280 1.6300 107° East 551 634 37,000  Level FlightAware
07:29PM 41.3960 1.7610 108° East 551 634 37,000  Level FlightAware
07:30PM 41.3640 1.8870 109° East 551 634 37,000  Level FlightAware
07:30PM 41.3280 2.0280 109° East 553 636 37,000  Level FlightAware
07:31PM 41.2990 2.1590 106° East 561 646 37,000  Level FlightAware
07:32PM 41.2730 2.3150 102° East 562 647 37,000  Level FlightAware
07:32PM 41.2500 2.4510 103° East 562 647 37,000  Level FlightAware
07:33PM 41.2280 2.5840 102° East 564 649 37,000  Level FlightAware
07:34PM 41.2030 2.7310 103° East 564 649 37,000  Level FlightAware
07:35PM 41.1800 2.8690 102° East 564 649 37,000  Level FlightAware
07:35PM 41.1530 3.0230 103° East 563 648 37,000  Level FlightAware
07:36PM 41.1300 3.1590 103° East 561 646 37,000  Level FlightAware
07:37PM 41.1050 3.3030 103° East 561 646 37,000  Level FlightAware
07:37PM 41.0810 3.4380 103° East 562 647 37,000  Level FlightAware
07:38PM 41.0570 3.5730 103° East 560 644 37,000  Level FlightAware
07:39PM 41.0350 3.6960 103° East 561 646 37,000  Level FlightAware
07:39PM 41.0070 3.8530 103° East 561 646 37,000 -120 Level FlightAware
07:40PM 40.9820 3.9890 104° East 558 642 36,900 -720 Descending FlightAware
07:41PM 40.9590 4.1190 103° East 557 641 36,100 -720 Descending FlightAware
07:41PM 40.9370 4.2410 103° East 556 640 36,000 -120 Descending FlightAware
07:42PM 40.9170 4.4040 99° East 564 649 36,000  Level FlightAware
07:43PM 40.9070 4.5380 96° East 564 649 36,000  Level FlightAware
07:44PM 40.8970 4.6810 95° East 566 651 36,000  Level FlightAware
07:44PM 40.8900 4.8160 94° East 566 651 36,000  Level FlightAware
07:45PM 40.8840 4.9330 94° East 566 651 36,000  Level FlightAware
07:46PM 40.8680 5.1320 96° East 570 656 36,000  Level FlightAware
07:46PM 40.8580 5.2850 95° East 573 659 36,000  Level FlightAware
07:47PM 40.8480 5.4470 95° East 573 659 36,000  Level FlightAware
07:48PM 40.8400 5.5690 95° East 573 659 36,000  Level FlightAware
07:49PM 40.8300 5.7170 95° East 572 658 36,000  Level FlightAware
07:49PM 40.8190 5.8720 95° East 570 656 36,000  Level FlightAware
07:50PM 40.8090 6.0130 95° East 566 651 36,000  Level FlightAware
07:51PM 40.8010 6.1370 95° East 566 651 36,000  Level FlightAware
07:51PM 40.7890 6.2870 96° East 564 649 36,000 120 Level FlightAware
07:52PM 40.7780 6.4410 95° East 566 651 36,200 420 Climbing FlightAware
07:53PM 40.7670 6.5910 95° East 572 658 36,700 840 Climbing FlightAware
07:53PM 40.7560 6.7270 96° East 571 657 37,400 960 Climbing FlightAware
07:54PM 40.7450 6.8660 96° East 566 651 38,000 360 Climbing FlightAware
07:55PM 40.7300 7.0630 96° East 563 648 38,000  Level FlightAware
07:58PM 40.6496 7.5354 102° East  Level Estimated
07:59PM 40.6162 7.7280 103° East  Level Estimated
08:00PM 40.5825 7.9203 103° East  Level Estimated
08:01PM 40.5485 8.1124 103° East  Level Estimated
08:02PM 40.5142 8.3043 103° East  Level Estimated
08:02PM 40.5720 8.4810 103° East 558 642 38,000  Level FlightAware
08:03PM 40.5520 8.6160 101° East 558 642 38,000  Level FlightAware
08:03PM 40.5330 8.7480 101° East 557 641 38,000  Level FlightAware
08:06PM 40.4595 9.1369 104° East  Level Estimated
08:07PM 40.4229 9.3278 104° East  Level Estimated
08:08PM 40.3860 9.5185 104° East  Level Estimated
08:09PM 40.3488 9.7091 104° East  Level Estimated
08:10PM 40.3112 9.8994 104° East  Level Estimated
08:11PM 40.2734 10.0895 105° East  Level Estimated
08:11PM 40.2930 10.3270 105° East 558 642 38,000  Level FlightAware
08:12PM 40.2352 10.2793 105° East  Level Estimated
08:12PM 40.2640 10.5040 102° East 557 641 38,000  Level FlightAware
08:13PM 40.2440 10.6370 101° East 557 641 38,000  Level FlightAware
08:14PM 40.2160 10.7980 103° East 559 643 38,000  Level FlightAware
08:15PM 40.1880 10.9680 102° East 559 643 38,000  Level FlightAware
08:15PM 40.1700 11.0770 102° East 557 641 38,000  Level FlightAware
08:16PM 40.1380 11.2710 102° East 556 640 38,000  Level FlightAware
08:17PM 40.1150 11.4040 103° East 557 641 38,000  Level FlightAware
08:18PM 40.0950 11.5240 102° East 556 640 38,000  Level FlightAware
08:18PM 40.0610 11.7210 103° East 555 639 38,000  Level FlightAware
08:19PM 40.0440 11.8170 103° East 555 639 38,000  Level FlightAware
08:20PM 40.0150 11.9830 103° East 554 638 38,000  Level FlightAware
08:21PM 39.9890 12.1310 103° East 556 640 38,000  Level FlightAware
08:21PM 39.9730 12.2230 103° East 556 640 38,000  Level FlightAware
08:22PM 39.9470 12.3710 103° East 557 641 38,000  Level FlightAware
08:23PM 39.9240 12.4970 103° East 555 639 38,000  Level FlightAware
08:23PM 39.9010 12.6260 103° East 555 639 38,000  Level FlightAware
08:24PM 39.8760 12.7620 103° East 554 638 38,000  Level FlightAware
08:25PM 39.8430 12.9420 103° East 554 638 38,000  Level FlightAware
08:26PM 39.8180 13.0770 104° East 553 636 38,000  Level FlightAware
08:26PM 39.7920 13.2170 104° East 553 636 38,000  Level FlightAware
08:27PM 39.7670 13.3500 104° East 552 635 38,000  Level FlightAware
08:28PM 39.7460 13.4590 104° East 553 636 38,000  Level FlightAware
08:28PM 39.7210 13.5920 104° East 553 636 38,000  Level FlightAware
08:29PM 39.6810 13.7990 104° East 553 636 38,000  Level FlightAware
08:30PM 39.6530 13.9470 104° East 553 636 38,000  Level FlightAware
08:31PM 39.6280 14.0770 104° East 553 636 38,000  Level FlightAware
08:31PM 39.6020 14.2070 105° East 554 638 38,000  Level FlightAware
08:32PM 39.5740 14.3490 104° East 554 638 38,000  Level FlightAware
08:33PM 39.5480 14.4800 104° East 554 638 38,000  Level FlightAware
08:33PM 39.5200 14.6210 104° East 553 636 38,000  Level FlightAware
08:34PM 39.4940 14.7500 105° East 553 636 38,000  Level FlightAware
08:35PM 39.4690 14.8760 104° East 552 635 38,000  Level FlightAware
08:35PM 39.4380 15.0230 105° East 550 633 38,000  Level FlightAware
08:36PM 39.4120 15.1500 105° East 549 632 38,000  Level FlightAware
08:37PM 39.3850 15.2810 105° East 548 631 38,000  Level FlightAware
08:38PM 39.3580 15.4120 105° East 546 628 38,000  Level FlightAware
08:38PM 39.3310 15.5410 105° East 547 629 38,000  Level FlightAware
08:39PM 39.3120 15.6340 105° East 546 628 38,000  Level FlightAware
08:40PM 39.2740 15.8120 105° East 545 627 38,000  Level FlightAware
08:40PM 39.2450 15.9460 106° East 545 627 38,000  Level FlightAware
08:41PM 39.2180 16.0730 105° East 546 628 38,000  Level FlightAware
08:42PM 39.1910 16.1870 107° East 545 627 38,000  Level FlightAware
08:42PM 39.1560 16.3420 106° East 545 627 38,000  Level FlightAware
08:43PM 39.1280 16.4640 106° East 545 627 38,000  Level FlightAware
08:44PM 39.0990 16.5890 107° East 544 626 38,000  Level FlightAware
08:45PM 39.0670 16.7250 107° East 544 626 38,000  Level FlightAware
08:45PM 39.0380 16.8500 107° East 546 628 38,000  Level FlightAware
08:46PM 39.0050 16.9910 107° East 546 628 38,000  Level FlightAware
08:47PM 38.9800 17.0950 107° East 547 629 38,000  Level FlightAware
08:47PM 38.9450 17.2420 107° East 546 628 38,000  Level FlightAware
08:48PM 38.9150 17.3700 107° East 548 631 38,000  Level FlightAware
08:49PM 38.8710 17.5540 107° East 547 629 38,000  Level FlightAware
08:50PM 38.8410 17.6770 107° East 547 629 38,000  Level FlightAware
08:50PM 38.8070 17.8150 108° East 547 629 38,000  Level FlightAware
08:51PM 38.7810 17.9200 108° East 548 631 38,000  Level FlightAware
08:52PM 38.7510 18.0430 107° East 547 629 38,000  Level FlightAware
08:53PM 38.7110 18.2040 108° East 547 629 38,000  Level FlightAware
08:53PM 38.6700 18.3710 107° East 547 629 38,000  Level FlightAware
08:54PM 38.6340 18.5120 108° East 548 631 38,000  Level FlightAware
08:55PM 38.6070 18.6220 107° East 545 627 38,000 -420 Level FlightAware
08:55PM 38.5740 18.7510 108° East 543 625 37,500 -720 Descending FlightAware
08:56PM 38.5360 18.9020 108° East 542 624 37,000 -360 Descending FlightAware
08:57PM 38.5040 19.0250 108° East 542 624 37,000  Level FlightAware
08:58PM 38.4720 19.1490 108° East 541 623 37,000  Level FlightAware
08:59PM 38.4340 19.3010 108° East 541 623 37,000  Level FlightAware
08:59PM 38.4090 19.4050 107° East 541 623 37,000  Level FlightAware
09:00PM 38.3620 19.5720 110° East 542 624 37,000  Level FlightAware
09:01PM 38.3340 19.6800 108° East 542 624 37,000  Level FlightAware
09:01PM 38.2940 19.8310 109° East 542 624 37,000  Level FlightAware
09:02PM 38.2590 19.9630 109° East 540 621 37,000  Level FlightAware
09:03PM 38.2340 20.0580 108° East 540 621 37,000  Level FlightAware
09:03PM 38.1950 20.2020 109° East 538 619 37,000  Level FlightAware
09:04PM 38.1580 20.3380 109° East 537 618 37,000  Level FlightAware
09:05PM 38.1320 20.4330 109° East 537 618 37,000  Level FlightAware
09:06PM 38.0820 20.5870 112° Southeast 541 623 37,000  Level FlightAware
09:06PM 38.0400 20.7000 115° Southeast 540 621 37,000  Level FlightAware
09:08PM 37.9460 20.9470 116° Southeast 538 619 37,000  Level FlightAware
09:08PM 37.9060 21.0510 116° Southeast 537 618 37,000  Level FlightAware
09:09PM 37.8600 21.1710 116° Southeast 535 616 37,000  Level FlightAware
09:10PM 37.8130 21.2960 115° Southeast 534 615 37,000  Level FlightAware
09:10PM 37.7690 21.4090 116° Southeast 534 615 37,000  Level FlightAware
09:11PM 37.7210 21.5330 116° Southeast 532 612 37,000  Level FlightAware
09:12PM 37.6800 21.6370 116° Southeast 530 610 37,000  Level FlightAware
09:13PM 37.6330 21.7580 116° Southeast 529 609 37,000  Level FlightAware
09:13PM 37.5850 21.8800 116° Southeast 527 606 37,000  Level FlightAware
09:14PM 37.5450 21.9840 116° Southeast 525 604 37,000  Level FlightAware
09:15PM 37.4940 22.1120 117° Southeast 523 602 37,000  Level FlightAware
09:15PM 37.4520 22.2180 116° Southeast 522 601 37,000  Level FlightAware
09:16PM 37.4050 22.3430 115° Southeast 519 597 37,000  Level FlightAware
09:17PM 37.3700 22.4540 112° Southeast 515 593 37,000  Level FlightAware
09:17PM 37.3380 22.5650 110° East 515 593 37,000  Level FlightAware
09:18PM 37.3010 22.6950 110° East 514 592 37,000  Level FlightAware
09:19PM 37.2670 22.8090 111° Southeast 513 590 37,000  Level FlightAware
09:20PM 37.2310 22.9310 110° East 511 588 37,000  Level FlightAware
09:20PM 37.1980 23.0420 110° East 511 588 37,000  Level FlightAware
09:21PM 37.1650 23.1520 111° Southeast 509 586 37,000  Level FlightAware
09:22PM 37.1270 23.2790 111° Southeast 508 585 37,000  Level FlightAware
09:22PM 37.0800 23.3810 120° Southeast 514 592 37,000  Level FlightAware
09:23PM 36.9960 23.4550 145° Southeast 516 594 37,000  Level FlightAware
09:24PM 36.9400 23.5510 126° Southeast 506 582 37,000  Level FlightAware
09:24PM 36.9180 23.6650 104° East 504 580 37,000  Level FlightAware
09:25PM 36.8830 23.7910 109° East 508 585 37,000  Level FlightAware
09:26PM 36.8480 23.8980 112° Southeast 508 585 37,000  Level FlightAware
09:27PM 36.8080 24.0180 113° Southeast 507 583 37,000  Level FlightAware
09:27PM 36.7720 24.1260 113° Southeast 507 583 37,000  Level FlightAware
09:28PM 36.7360 24.2320 113° Southeast 506 582 37,000  Level FlightAware
09:29PM 36.6940 24.3560 113° Southeast 505 581 37,000  Level FlightAware
09:29PM 36.6570 24.4630 113° Southeast 503 579 37,000  Level FlightAware
09:30PM 36.6210 24.5690 113° Southeast 502 578 37,000  Level FlightAware
09:31PM 36.5820 24.6800 114° Southeast 500 575 37,000  Level FlightAware
09:31PM 36.5440 24.7910 113° Southeast 499 574 37,000  Level FlightAware
09:32PM 36.5020 24.9120 113° Southeast 498 573 37,000  Level FlightAware
09:33PM 36.4660 25.0170 113° Southeast 498 573 37,000  Level FlightAware
09:34PM 36.4300 25.1210 113° Southeast 498 573 37,000  Level FlightAware
09:35PM 36.3790 25.2680 113° Southeast 498 573 37,000  Level FlightAware
09:35PM 36.3480 25.3580 113° Southeast 498 573 37,000  Level FlightAware
09:36PM 36.3170 25.4470 113° Southeast 498 573 37,000  Level FlightAware
09:37PM 36.2870 25.5370 112° Southeast 498 573 37,000  Level FlightAware
09:37PM 36.2560 25.6260 113° Southeast 498 573 37,000  Level FlightAware
09:38PM 36.2180 25.7380 113° Southeast 498 573 37,000  Level FlightAware
09:39PM 36.1430 25.9290 116° Southeast 499 574 37,000  Level FlightAware
09:40PM 36.0940 26.0680 114° Southeast 498 573 37,000  Level FlightAware
09:40PM 36.0640 26.1570 113° Southeast 498 573 37,000  Level FlightAware
09:41PM 36.0330 26.2470 113° Southeast 498 573 37,000  Level FlightAware
09:42PM 36.0020 26.3360 113° Southeast 498 573 37,000  Level FlightAware
09:42PM 35.9640 26.4470 113° Southeast 498 573 37,000  Level FlightAware
09:43PM 35.9330 26.5360 113° Southeast 498 573 37,000  Level FlightAware
09:44PM 35.9030 26.6250 113° Southeast 498 573 37,000  Level FlightAware
09:44PM 35.8720 26.7140 113° Southeast 498 573 37,000  Level FlightAware
09:45PM 35.8340 26.8250 113° Southeast 498 573 37,000  Level FlightAware
09:46PM 35.8030 26.9140 113° Southeast 498 573 37,000  Level FlightAware
09:47PM 35.7730 27.0030 113° Southeast 498 573 37,000  Level FlightAware
09:47PM 35.7420 27.0920 113° Southeast 498 573 37,000  Level FlightAware
09:48PM 35.7110 27.1810 113° Southeast 498 573 37,000  Level FlightAware
09:49PM 35.6810 27.2700 113° Southeast 498 573 37,000  Level FlightAware
09:51PM 35.5475 27.5724 118° Southeast  Level FlightAware Approximate
09:51PM 35.4440 27.8190 118° Southeast 37,000  Level FlightAware
09:52PM 35.3960 27.9420 116° Southeast 495 570 37,000  Level FlightAware
09:52PM 35.3610 28.0350 115° Southeast 495 570 37,000  Level FlightAware
09:53PM 35.3120 28.1620 115° Southeast 495 570 37,000  Level FlightAware
09:54PM 35.2750 28.2590 115° Southeast 495 570 37,000  Level FlightAware
09:55PM 35.2340 28.3630 116° Southeast 494 568 37,000  Level FlightAware
09:55PM 35.1950 28.4640 115° Southeast 494 568 37,000  Level FlightAware
09:56PM 35.1520 28.5740 116° Southeast 493 567 37,000  Level FlightAware
09:57PM 35.1130 28.6750 115° Southeast 494 568 37,000  Level FlightAware
09:57PM 35.0720 28.7780 116° Southeast 495 570 37,000  Level FlightAware
09:58PM 35.0330 28.8790 115° Southeast 495 570 37,000  Level FlightAware
09:59PM 34.9850 28.9980 116° Southeast 491 565 37,000  Level FlightAware
09:59PM 34.9520 29.0830 115° Southeast 494 568 37,000  Level FlightAware
10:00PM 34.8990 29.2160 116° Southeast 495 570 37,000  Level FlightAware
10:01PM 34.8600 29.3130 116° Southeast 491 565 37,000  Level FlightAware
10:02PM 34.8200 29.4150 116° Southeast 491 565 37,000  Level FlightAware
10:03PM 34.7380 29.6170 116° Southeast 490 564 37,000  Level FlightAware
10:04PM 34.6670 29.7930 116° Southeast 490 564 37,000  Level FlightAware
10:05PM 34.6320 29.8700 119° Southeast 489 563 37,000  Level FlightAware
10:05PM 34.5840 29.9710 120° Southeast 489 563 37,000  Level FlightAware
10:06PM 34.5260 30.0930 120° Southeast 490 564 37,000  Level FlightAware
10:07PM 34.4840 30.1810 120° Southeast 494 568 37,000  Level FlightAware
10:08PM 34.4280 30.3000 120° Southeast 494 568 37,000  Level FlightAware
10:08PM 34.3810 30.3970 120° Southeast 492 566 37,000  Level FlightAware
10:09PM 34.3300 30.5040 120° Southeast 492 566 37,000  Level FlightAware
10:10PM 34.2830 30.6030 120° Southeast 492 566 37,000  Level FlightAware
10:10PM 34.2340 30.7060 120° Southeast 492 566 37,000  Level FlightAware
10:11PM 34.1840 30.8070 121° Southeast 493 567 37,000  Level FlightAware
10:13PM 34.0780 31.0260 120° Southeast 495 570 37,000  Level FlightAware
10:14PM 33.9950 31.1970 120° Southeast 495 570 37,000  Level FlightAware
10:15PM 33.9420 31.3040 121° Southeast 496 571 37,000  Level FlightAware
10:15PM 33.8940 31.4030 120° Southeast 500 575 37,000  Level FlightAware
10:16PM 33.8410 31.5110 121° Southeast 496 571 37,000  Level FlightAware
10:17PM 33.7950 31.6040 121° Southeast 500 575 37,000  Level FlightAware
10:17PM 33.7390 31.7170 121° Southeast 501 577 37,000  Level FlightAware
10:18PM 33.6910 31.8140 121° Southeast 500 575 37,000  Level FlightAware
10:19PM 33.6430 31.9100 121° Southeast 500 575 37,000  Level FlightAware
10:20PM 33.5890 32.0180 121° Southeast 500 575 37,000  Level FlightAware
10:20PM 33.5420 32.1120 121° Southeast 500 575 37,000  Level FlightAware
10:21PM 33.4930 32.2090 121° Southeast 500 575 37,000  Level FlightAware
10:22PM 33.4030 32.3880 121° Southeast 493 567 37,000 -840 Level FlightAware
10:23PM 33.3170 32.5580 121° Southeast 471 542 34,900 -1,680 Descending FlightAware
10:26PM 33.1129 32.8380 123° Southeast  Level FlightAware Approximate
10:27PM 33.0319 32.9884 123° Southeast  Level FlightAware Approximate
10:27PM 33.0780 33.0270 123° Southeast 432 497 29,000  Level FlightAware
10:28PM 33.0190 33.1400 122° Southeast 428 493 27,800 -1,560 Descending FlightAware
10:29PM 32.9710 33.2130 128° Southeast 426 490 26,400 -1,080 Descending FlightAware
10:29PM 32.9330 33.2790 124° Southeast 426 490 26,400 -1,560 Level FlightAware
10:30PM 32.8700 33.3830 126° Southeast 448 516 24,200 -1,500 Descending FlightAware
10:31PM 32.8230 33.4670 124° Southeast 448 516 24,200  Level FlightAware
10:32PM 32.7840 33.5360 124° Southeast 448 516 24,200  Level FlightAware
10:32PM 32.7440 33.6060 124° Southeast 448 516 24,200  Level FlightAware
10:33PM 32.6950 33.6920 124° Southeast 448 516 24,200  Level FlightAware
10:34PM 32.6560 33.7620 123° Southeast 448 516 24,200  Level FlightAware
10:36PM 32.5278 34.0231 119° Southeast  Level FlightAware Approximate
10:37PM 32.4577 34.1792 130° Southeast  Level FlightAware Approximate
10:38PM 32.3618 34.3157 128° Southeast  Level FlightAware Approximate
10:39PM 32.2690 34.4549 128° Southeast  Level FlightAware Approximate
10:40PM 32.1744 34.5906 124° Southeast  Level FlightAware Approximate
10:41PM 32.0886 34.7357 125° Southeast  Level FlightAware Approximate
10:42PM 32.0000 34.8667 North  Level FlightAware Approximate
10:43PM 32.0095 34.8769 North  Level Estimated
10:44PM 32.0095 34.8769 North  Level Estimated
10:45PM 32.0095 34.8769 North  Level Estimated
10:46PM 32.0095 34.8769 North  Level Estimated
10:47PM 32.0095 34.8769 North  Level Estimated
10:48PM 32.0095 34.8769 North  Level Estimated
10:49PM 32.0095 34.8769 North  Level Estimated
10:50PM 32.0095 34.8769 North  Level Estimated
10:51PM 32.0095 34.8769 North  Level Estimated
10:52PM 32.0095 34.8769 North  Level Estimated
10:53PM 32.0095 34.8769 North  Level Estimated
10:54PM 32.0095 34.8769 North  Level Estimated
10:55PM 32.0095 34.8769 North  Level Estimated
10:56PM 32.0095 34.8769 North  Level Estimated